sensor_id;sensor_type;location;lat;lon;timestamp;P1;durP1;ratioP1;P2;durP2;ratioP2
25153;SDS011;47555;51.038;6.280;2023-12-20T00:01:31;26.05;;;12.80;;
25153;SDS011;47555;51.038;6.280;2023-12-20T00:03:57;27.50;;;12.55;;
25153;SDS011;47555;51.038;6.280;2023-12-20T00:06:23;27.67;;;12.73;;
25153;SDS011;47555;51.038;6.280;2023-12-20T00:08:49;20.77;;;11.57;;
25153;SDS011;47555;51.038;6.280;2023-12-20T00:11:15;24.25;;;12.38;;
25153;SDS011;47555;51.038;6.280;2023-12-20T00:13:41;24.48;;;11.43;;
25153;SDS011;47555;51.038;6.280;2023-12-20T00:16:07;26.52;;;11.57;;
25153;SDS011;47555;51.038;6.280;2023-12-20T00:18:33;21.33;;;11.38;;
25153;SDS011;47555;51.038;6.280;2023-12-20T00:20:59;24.58;;;11.07;;
25153;SDS011;47555;51.038;6.280;2023-12-20T00:23:25;20.35;;;10.45;;
25153;SDS011;47555;51.038;6.280;2023-12-20T00:25:51;21.55;;;10.60;;
25153;SDS011;47555;51.038;6.280;2023-12-20T00:28:17;21.17;;;9.88;;
25153;SDS011;47555;51.038;6.280;2023-12-20T00:30:42;20.55;;;10.80;;
25153;SDS011;47555;51.038;6.280;2023-12-20T00:33:09;24.00;;;11.10;;
25153;SDS011;47555;51.038;6.280;2023-12-20T00:35:35;22.63;;;10.88;;
25153;SDS011;47555;51.038;6.280;2023-12-20T00:38:00;21.30;;;10.82;;
25153;SDS011;47555;51.038;6.280;2023-12-20T00:40:27;23.63;;;11.68;;
25153;SDS011;47555;51.038;6.280;2023-12-20T00:42:53;25.33;;;11.60;;
25153;SDS011;47555;51.038;6.280;2023-12-20T00:45:19;26.75;;;12.50;;
25153;SDS011;47555;51.038;6.280;2023-12-20T00:47:44;22.60;;;10.45;;
25153;SDS011;47555;51.038;6.280;2023-12-20T00:50:10;25.33;;;11.23;;
25153;SDS011;47555;51.038;6.280;2023-12-20T00:52:36;23.30;;;10.85;;
25153;SDS011;47555;51.038;6.280;2023-12-20T00:55:03;20.77;;;9.68;;
25153;SDS011;47555;51.038;6.280;2023-12-20T00:57:29;19.63;;;9.07;;
25153;SDS011;47555;51.038;6.280;2023-12-20T00:59:56;17.63;;;8.60;;
25153;SDS011;47555;51.038;6.280;2023-12-20T01:02:22;15.63;;;7.10;;
25153;SDS011;47555;51.038;6.280;2023-12-20T01:04:48;17.90;;;8.15;;
25153;SDS011;47555;51.038;6.280;2023-12-20T01:07:13;12.43;;;5.93;;
25153;SDS011;47555;51.038;6.280;2023-12-20T01:09:39;13.35;;;5.32;;
25153;SDS011;47555;51.038;6.280;2023-12-20T01:12:05;14.60;;;4.82;;
25153;SDS011;47555;51.038;6.280;2023-12-20T01:14:31;10.45;;;4.80;;
25153;SDS011;47555;51.038;6.280;2023-12-20T01:16:57;9.90;;;4.53;;
25153;SDS011;47555;51.038;6.280;2023-12-20T01:19:24;11.60;;;4.00;;
25153;SDS011;47555;51.038;6.280;2023-12-20T01:21:50;13.13;;;3.97;;
25153;SDS011;47555;51.038;6.280;2023-12-20T01:24:16;10.98;;;4.53;;
25153;SDS011;47555;51.038;6.280;2023-12-20T01:26:42;7.43;;;3.83;;
25153;SDS011;47555;51.038;6.280;2023-12-20T01:29:08;9.10;;;3.90;;
25153;SDS011;47555;51.038;6.280;2023-12-20T01:31:34;8.65;;;3.85;;
25153;SDS011;47555;51.038;6.280;2023-12-20T01:34:03;9.35;;;3.75;;
25153;SDS011;47555;51.038;6.280;2023-12-20T01:36:29;11.18;;;4.68;;
25153;SDS011;47555;51.038;6.280;2023-12-20T01:38:55;6.57;;;3.25;;
25153;SDS011;47555;51.038;6.280;2023-12-20T01:41:21;10.30;;;2.97;;
25153;SDS011;47555;51.038;6.280;2023-12-20T01:43:46;11.65;;;3.00;;
25153;SDS011;47555;51.038;6.280;2023-12-20T01:46:12;12.80;;;3.13;;
25153;SDS011;47555;51.038;6.280;2023-12-20T01:48:38;7.30;;;2.83;;
25153;SDS011;47555;51.038;6.280;2023-12-20T01:51:04;8.95;;;2.70;;
25153;SDS011;47555;51.038;6.280;2023-12-20T01:53:30;6.85;;;2.40;;
25153;SDS011;47555;51.038;6.280;2023-12-20T01:55:57;6.13;;;2.45;;
25153;SDS011;47555;51.038;6.280;2023-12-20T01:58:24;7.53;;;2.63;;
25153;SDS011;47555;51.038;6.280;2023-12-20T02:00:50;6.13;;;2.40;;
25153;SDS011;47555;51.038;6.280;2023-12-20T02:03:16;6.43;;;2.70;;
25153;SDS011;47555;51.038;6.280;2023-12-20T02:05:42;8.00;;;2.70;;
25153;SDS011;47555;51.038;6.280;2023-12-20T02:08:10;10.07;;;2.58;;
25153;SDS011;47555;51.038;6.280;2023-12-20T02:10:36;7.35;;;3.10;;
25153;SDS011;47555;51.038;6.280;2023-12-20T02:13:01;5.57;;;2.20;;
25153;SDS011;47555;51.038;6.280;2023-12-20T02:15:27;7.35;;;2.17;;
25153;SDS011;47555;51.038;6.280;2023-12-20T02:17:53;8.40;;;2.67;;
25153;SDS011;47555;51.038;6.280;2023-12-20T02:20:20;7.15;;;2.63;;
25153;SDS011;47555;51.038;6.280;2023-12-20T02:22:46;9.40;;;2.08;;
25153;SDS011;47555;51.038;6.280;2023-12-20T02:25:11;12.75;;;2.67;;
25153;SDS011;47555;51.038;6.280;2023-12-20T02:27:38;10.90;;;2.20;;
25153;SDS011;47555;51.038;6.280;2023-12-20T02:30:04;6.40;;;2.45;;
25153;SDS011;47555;51.038;6.280;2023-12-20T02:32:30;11.63;;;2.67;;
25153;SDS011;47555;51.038;6.280;2023-12-20T02:34:56;9.32;;;2.50;;
25153;SDS011;47555;51.038;6.280;2023-12-20T02:37:22;12.20;;;2.80;;
25153;SDS011;47555;51.038;6.280;2023-12-20T02:39:48;14.52;;;2.83;;
25153;SDS011;47555;51.038;6.280;2023-12-20T02:42:14;12.73;;;2.65;;
25153;SDS011;47555;51.038;6.280;2023-12-20T02:44:40;7.55;;;2.58;;
25153;SDS011;47555;51.038;6.280;2023-12-20T02:47:06;9.60;;;2.58;;
25153;SDS011;47555;51.038;6.280;2023-12-20T02:49:32;10.82;;;3.03;;
25153;SDS011;47555;51.038;6.280;2023-12-20T02:51:58;9.82;;;2.55;;
25153;SDS011;47555;51.038;6.280;2023-12-20T02:54:24;11.18;;;2.88;;
25153;SDS011;47555;51.038;6.280;2023-12-20T02:56:50;6.93;;;3.85;;
25153;SDS011;47555;51.038;6.280;2023-12-20T02:59:15;10.32;;;3.17;;
25153;SDS011;47555;51.038;6.280;2023-12-20T03:01:42;11.57;;;3.42;;
25153;SDS011;47555;51.038;6.280;2023-12-20T03:04:09;8.65;;;3.00;;
25153;SDS011;47555;51.038;6.280;2023-12-20T03:06:35;13.30;;;3.30;;
25153;SDS011;47555;51.038;6.280;2023-12-20T03:09:01;8.00;;;3.08;;
25153;SDS011;47555;51.038;6.280;2023-12-20T03:11:27;7.78;;;2.53;;
25153;SDS011;47555;51.038;6.280;2023-12-20T03:13:53;13.38;;;3.13;;
25153;SDS011;47555;51.038;6.280;2023-12-20T03:16:19;10.27;;;3.47;;
25153;SDS011;47555;51.038;6.280;2023-12-20T03:18:45;9.20;;;2.97;;
25153;SDS011;47555;51.038;6.280;2023-12-20T03:21:11;5.85;;;2.60;;
25153;SDS011;47555;51.038;6.280;2023-12-20T03:23:37;12.23;;;3.13;;
25153;SDS011;47555;51.038;6.280;2023-12-20T03:26:05;8.95;;;3.45;;
25153;SDS011;47555;51.038;6.280;2023-12-20T03:28:32;9.48;;;3.25;;
25153;SDS011;47555;51.038;6.280;2023-12-20T03:30:58;11.38;;;2.85;;
25153;SDS011;47555;51.038;6.280;2023-12-20T03:33:24;8.80;;;3.13;;
25153;SDS011;47555;51.038;6.280;2023-12-20T03:35:50;12.30;;;3.15;;
25153;SDS011;47555;51.038;6.280;2023-12-20T03:38:16;14.15;;;3.40;;
25153;SDS011;47555;51.038;6.280;2023-12-20T03:40:42;12.32;;;3.42;;
25153;SDS011;47555;51.038;6.280;2023-12-20T03:43:08;10.00;;;3.42;;
25153;SDS011;47555;51.038;6.280;2023-12-20T03:45:34;8.80;;;3.42;;
25153;SDS011;47555;51.038;6.280;2023-12-20T03:48:00;12.02;;;4.35;;
25153;SDS011;47555;51.038;6.280;2023-12-20T03:50:26;8.27;;;4.05;;
25153;SDS011;47555;51.038;6.280;2023-12-20T03:52:52;11.57;;;4.55;;
25153;SDS011;47555;51.038;6.280;2023-12-20T03:55:18;11.52;;;4.35;;
25153;SDS011;47555;51.038;6.280;2023-12-20T03:57:44;13.95;;;4.07;;
25153;SDS011;47555;51.038;6.280;2023-12-20T04:00:10;10.85;;;3.78;;
25153;SDS011;47555;51.038;6.280;2023-12-20T04:02:39;10.55;;;4.00;;
25153;SDS011;47555;51.038;6.280;2023-12-20T04:05:06;15.65;;;4.38;;
25153;SDS011;47555;51.038;6.280;2023-12-20T04:07:32;9.73;;;3.85;;
25153;SDS011;47555;51.038;6.280;2023-12-20T04:09:58;15.20;;;4.25;;
25153;SDS011;47555;51.038;6.280;2023-12-20T04:12:24;10.35;;;4.07;;
25153;SDS011;47555;51.038;6.280;2023-12-20T04:14:51;11.57;;;3.63;;
25153;SDS011;47555;51.038;6.280;2023-12-20T04:17:17;9.90;;;3.53;;
25153;SDS011;47555;51.038;6.280;2023-12-20T04:19:43;10.82;;;3.65;;
25153;SDS011;47555;51.038;6.280;2023-12-20T04:22:09;7.13;;;3.28;;
25153;SDS011;47555;51.038;6.280;2023-12-20T04:24:35;11.02;;;3.28;;
25153;SDS011;47555;51.038;6.280;2023-12-20T04:27:01;10.70;;;3.30;;
25153;SDS011;47555;51.038;6.280;2023-12-20T04:29:27;13.30;;;3.55;;
25153;SDS011;47555;51.038;6.280;2023-12-20T04:31:53;14.40;;;3.75;;
25153;SDS011;47555;51.038;6.280;2023-12-20T04:34:20;11.63;;;3.78;;
25153;SDS011;47555;51.038;6.280;2023-12-20T04:36:46;15.38;;;3.95;;
25153;SDS011;47555;51.038;6.280;2023-12-20T04:39:12;13.38;;;4.57;;
25153;SDS011;47555;51.038;6.280;2023-12-20T04:41:40;11.00;;;4.00;;
25153;SDS011;47555;51.038;6.280;2023-12-20T04:44:06;9.55;;;4.15;;
25153;SDS011;47555;51.038;6.280;2023-12-20T04:46:32;16.00;;;4.40;;
25153;SDS011;47555;51.038;6.280;2023-12-20T04:48:57;12.07;;;4.60;;
25153;SDS011;47555;51.038;6.280;2023-12-20T04:51:23;12.77;;;3.53;;
25153;SDS011;47555;51.038;6.280;2023-12-20T04:53:49;10.75;;;4.00;;
25153;SDS011;47555;51.038;6.280;2023-12-20T04:56:15;19.45;;;4.43;;
25153;SDS011;47555;51.038;6.280;2023-12-20T04:58:44;10.52;;;3.83;;
25153;SDS011;47555;51.038;6.280;2023-12-20T05:01:10;11.77;;;4.88;;
25153;SDS011;47555;51.038;6.280;2023-12-20T05:03:37;10.07;;;3.72;;
25153;SDS011;47555;51.038;6.280;2023-12-20T05:06:03;11.55;;;3.63;;
25153;SDS011;47555;51.038;6.280;2023-12-20T05:08:29;14.35;;;4.18;;
25153;SDS011;47555;51.038;6.280;2023-12-20T05:10:55;10.43;;;3.40;;
25153;SDS011;47555;51.038;6.280;2023-12-20T05:13:21;10.73;;;4.10;;
25153;SDS011;47555;51.038;6.280;2023-12-20T05:15:47;11.40;;;3.60;;
25153;SDS011;47555;51.038;6.280;2023-12-20T05:18:13;12.73;;;3.60;;
25153;SDS011;47555;51.038;6.280;2023-12-20T05:20:39;12.43;;;3.50;;
25153;SDS011;47555;51.038;6.280;2023-12-20T05:23:05;13.02;;;3.95;;
25153;SDS011;47555;51.038;6.280;2023-12-20T05:25:31;13.90;;;3.72;;
25153;SDS011;47555;51.038;6.280;2023-12-20T05:27:57;10.05;;;3.17;;
25153;SDS011;47555;51.038;6.280;2023-12-20T05:30:23;15.38;;;3.78;;
25153;SDS011;47555;51.038;6.280;2023-12-20T05:32:49;12.93;;;4.13;;
25153;SDS011;47555;51.038;6.280;2023-12-20T05:35:16;15.90;;;3.75;;
25153;SDS011;47555;51.038;6.280;2023-12-20T05:37:42;11.50;;;3.90;;
25153;SDS011;47555;51.038;6.280;2023-12-20T05:40:08;9.27;;;3.58;;
25153;SDS011;47555;51.038;6.280;2023-12-20T05:42:37;9.30;;;3.47;;
25153;SDS011;47555;51.038;6.280;2023-12-20T05:45:04;10.60;;;3.83;;
25153;SDS011;47555;51.038;6.280;2023-12-20T05:47:30;10.48;;;3.60;;
25153;SDS011;47555;51.038;6.280;2023-12-20T05:49:56;12.02;;;3.42;;
25153;SDS011;47555;51.038;6.280;2023-12-20T05:52:22;12.45;;;3.70;;
25153;SDS011;47555;51.038;6.280;2023-12-20T05:54:48;10.90;;;3.28;;
25153;SDS011;47555;51.038;6.280;2023-12-20T05:57:14;14.38;;;4.15;;
25153;SDS011;47555;51.038;6.280;2023-12-20T05:59:40;11.07;;;3.60;;
25153;SDS011;47555;51.038;6.280;2023-12-20T06:02:06;15.15;;;4.95;;
25153;SDS011;47555;51.038;6.280;2023-12-20T06:04:32;9.32;;;4.00;;
25153;SDS011;47555;51.038;6.280;2023-12-20T06:06:58;14.70;;;3.63;;
25153;SDS011;47555;51.038;6.280;2023-12-20T06:09:24;17.20;;;3.63;;
25153;SDS011;47555;51.038;6.280;2023-12-20T06:11:50;13.73;;;3.13;;
25153;SDS011;47555;51.038;6.280;2023-12-20T06:14:16;14.27;;;4.15;;
25153;SDS011;47555;51.038;6.280;2023-12-20T06:16:42;9.63;;;2.97;;
25153;SDS011;47555;51.038;6.280;2023-12-20T06:19:08;13.00;;;3.83;;
25153;SDS011;47555;51.038;6.280;2023-12-20T06:21:34;7.07;;;3.40;;
25153;SDS011;47555;51.038;6.280;2023-12-20T06:24:00;15.15;;;3.80;;
25153;SDS011;47555;51.038;6.280;2023-12-20T06:26:26;13.85;;;3.05;;
25153;SDS011;47555;51.038;6.280;2023-12-20T06:28:52;17.63;;;4.03;;
25153;SDS011;47555;51.038;6.280;2023-12-20T06:31:18;11.68;;;3.83;;
25153;SDS011;47555;51.038;6.280;2023-12-20T06:33:44;10.95;;;4.05;;
25153;SDS011;47555;51.038;6.280;2023-12-20T06:36:13;11.07;;;3.90;;
25153;SDS011;47555;51.038;6.280;2023-12-20T06:38:39;15.98;;;4.68;;
25153;SDS011;47555;51.038;6.280;2023-12-20T06:41:07;12.15;;;3.60;;
25153;SDS011;47555;51.038;6.280;2023-12-20T06:43:33;12.65;;;4.25;;
25153;SDS011;47555;51.038;6.280;2023-12-20T06:46:00;21.10;;;4.00;;
25153;SDS011;47555;51.038;6.280;2023-12-20T06:48:26;11.73;;;4.28;;
25153;SDS011;47555;51.038;6.280;2023-12-20T06:50:52;12.40;;;4.22;;
25153;SDS011;47555;51.038;6.280;2023-12-20T06:53:18;13.00;;;4.38;;
25153;SDS011;47555;51.038;6.280;2023-12-20T06:55:44;13.07;;;4.20;;
25153;SDS011;47555;51.038;6.280;2023-12-20T06:58:10;10.93;;;4.70;;
25153;SDS011;47555;51.038;6.280;2023-12-20T07:00:36;15.90;;;4.57;;
25153;SDS011;47555;51.038;6.280;2023-12-20T07:03:02;10.23;;;3.80;;
25153;SDS011;47555;51.038;6.280;2023-12-20T07:05:28;13.95;;;5.25;;
25153;SDS011;47555;51.038;6.280;2023-12-20T07:07:54;16.30;;;4.57;;
25153;SDS011;47555;51.038;6.280;2023-12-20T07:10:20;17.33;;;3.80;;
25153;SDS011;47555;51.038;6.280;2023-12-20T07:12:46;10.95;;;3.85;;
25153;SDS011;47555;51.038;6.280;2023-12-20T07:15:13;15.65;;;4.35;;
25153;SDS011;47555;51.038;6.280;2023-12-20T07:17:39;13.63;;;4.18;;
25153;SDS011;47555;51.038;6.280;2023-12-20T07:20:06;18.13;;;4.75;;
25153;SDS011;47555;51.038;6.280;2023-12-20T07:22:34;14.88;;;4.75;;
25153;SDS011;47555;51.038;6.280;2023-12-20T07:25:01;14.50;;;4.65;;
25153;SDS011;47555;51.038;6.280;2023-12-20T07:27:28;8.98;;;4.03;;
25153;SDS011;47555;51.038;6.280;2023-12-20T07:29:54;11.25;;;4.30;;
25153;SDS011;47555;51.038;6.280;2023-12-20T07:32:19;13.63;;;4.55;;
25153;SDS011;47555;51.038;6.280;2023-12-20T07:34:45;10.73;;;4.13;;
25153;SDS011;47555;51.038;6.280;2023-12-20T07:37:12;17.25;;;5.70;;
25153;SDS011;47555;51.038;6.280;2023-12-20T07:39:41;12.32;;;4.35;;
25153;SDS011;47555;51.038;6.280;2023-12-20T07:42:10;11.93;;;4.45;;
25153;SDS011;47555;51.038;6.280;2023-12-20T07:44:36;10.38;;;4.43;;
25153;SDS011;47555;51.038;6.280;2023-12-20T07:47:02;10.90;;;4.70;;
25153;SDS011;47555;51.038;6.280;2023-12-20T07:49:30;13.73;;;4.90;;
25153;SDS011;47555;51.038;6.280;2023-12-20T07:51:56;13.30;;;4.55;;
25153;SDS011;47555;51.038;6.280;2023-12-20T07:54:21;12.57;;;4.43;;
25153;SDS011;47555;51.038;6.280;2023-12-20T07:56:48;11.57;;;4.50;;
25153;SDS011;47555;51.038;6.280;2023-12-20T07:59:14;14.65;;;5.03;;
25153;SDS011;47555;51.038;6.280;2023-12-20T08:01:40;11.43;;;3.85;;
25153;SDS011;47555;51.038;6.280;2023-12-20T08:04:07;17.35;;;5.30;;
25153;SDS011;47555;51.038;6.280;2023-12-20T08:06:33;10.73;;;3.88;;
25153;SDS011;47555;51.038;6.280;2023-12-20T08:08:59;12.15;;;4.28;;
25153;SDS011;47555;51.038;6.280;2023-12-20T08:11:25;9.35;;;3.67;;
25153;SDS011;47555;51.038;6.280;2023-12-20T08:13:50;12.30;;;3.85;;
25153;SDS011;47555;51.038;6.280;2023-12-20T08:16:16;12.02;;;3.92;;
25153;SDS011;47555;51.038;6.280;2023-12-20T08:18:43;9.10;;;3.58;;
25153;SDS011;47555;51.038;6.280;2023-12-20T08:21:09;15.50;;;3.97;;
25153;SDS011;47555;51.038;6.280;2023-12-20T08:23:34;14.68;;;4.80;;
25153;SDS011;47555;51.038;6.280;2023-12-20T08:26:07;10.50;;;3.55;;
25153;SDS011;47555;51.038;6.280;2023-12-20T08:28:33;10.05;;;3.70;;
25153;SDS011;47555;51.038;6.280;2023-12-20T08:31:00;9.73;;;3.97;;
25153;SDS011;47555;51.038;6.280;2023-12-20T08:33:26;9.35;;;3.47;;
25153;SDS011;47555;51.038;6.280;2023-12-20T08:35:52;9.15;;;3.80;;
25153;SDS011;47555;51.038;6.280;2023-12-20T08:38:18;16.15;;;3.45;;
25153;SDS011;47555;51.038;6.280;2023-12-20T08:40:44;17.52;;;3.95;;
25153;SDS011;47555;51.038;6.280;2023-12-20T08:43:10;12.80;;;3.78;;
25153;SDS011;47555;51.038;6.280;2023-12-20T08:45:36;15.45;;;3.75;;
25153;SDS011;47555;51.038;6.280;2023-12-20T08:48:02;11.80;;;3.55;;
25153;SDS011;47555;51.038;6.280;2023-12-20T08:50:28;11.25;;;3.50;;
25153;SDS011;47555;51.038;6.280;2023-12-20T08:52:54;15.52;;;4.75;;
25153;SDS011;47555;51.038;6.280;2023-12-20T08:55:20;12.70;;;4.22;;
25153;SDS011;47555;51.038;6.280;2023-12-20T08:57:46;13.38;;;3.80;;
25153;SDS011;47555;51.038;6.280;2023-12-20T09:00:13;8.27;;;3.40;;
25153;SDS011;47555;51.038;6.280;2023-12-20T09:02:39;11.77;;;3.17;;
25153;SDS011;47555;51.038;6.280;2023-12-20T09:05:05;13.32;;;3.50;;
25153;SDS011;47555;51.038;6.280;2023-12-20T09:07:31;10.63;;;3.17;;
25153;SDS011;47555;51.038;6.280;2023-12-20T09:09:57;12.80;;;4.13;;
25153;SDS011;47555;51.038;6.280;2023-12-20T09:12:23;13.98;;;3.15;;
25153;SDS011;47555;51.038;6.280;2023-12-20T09:14:49;15.13;;;4.13;;
25153;SDS011;47555;51.038;6.280;2023-12-20T09:17:16;11.82;;;3.47;;
25153;SDS011;47555;51.038;6.280;2023-12-20T09:19:42;11.80;;;3.55;;
25153;SDS011;47555;51.038;6.280;2023-12-20T09:22:11;11.45;;;3.13;;
25153;SDS011;47555;51.038;6.280;2023-12-20T09:24:37;6.60;;;2.63;;
25153;SDS011;47555;51.038;6.280;2023-12-20T09:27:06;10.82;;;3.60;;
25153;SDS011;47555;51.038;6.280;2023-12-20T09:29:32;13.02;;;3.72;;
25153;SDS011;47555;51.038;6.280;2023-12-20T09:31:58;12.80;;;3.15;;
25153;SDS011;47555;51.038;6.280;2023-12-20T09:34:24;14.32;;;3.95;;
25153;SDS011;47555;51.038;6.280;2023-12-20T09:36:50;15.10;;;3.55;;
25153;SDS011;47555;51.038;6.280;2023-12-20T09:39:17;9.60;;;3.10;;
25153;SDS011;47555;51.038;6.280;2023-12-20T09:42:00;12.95;;;2.75;;
25153;SDS011;47555;51.038;6.280;2023-12-20T09:44:26;12.90;;;3.03;;
25153;SDS011;47555;51.038;6.280;2023-12-20T09:46:52;9.82;;;3.03;;
25153;SDS011;47555;51.038;6.280;2023-12-20T09:49:18;9.50;;;2.70;;
25153;SDS011;47555;51.038;6.280;2023-12-20T09:51:46;10.30;;;3.28;;
25153;SDS011;47555;51.038;6.280;2023-12-20T09:54:15;8.75;;;2.75;;
25153;SDS011;47555;51.038;6.280;2023-12-20T09:56:41;9.73;;;2.67;;
25153;SDS011;47555;51.038;6.280;2023-12-20T09:59:07;8.85;;;2.65;;
25153;SDS011;47555;51.038;6.280;2023-12-20T10:01:33;9.18;;;3.10;;
25153;SDS011;47555;51.038;6.280;2023-12-20T10:04:00;10.63;;;2.72;;
25153;SDS011;47555;51.038;6.280;2023-12-20T10:06:26;10.27;;;2.92;;
25153;SDS011;47555;51.038;6.280;2023-12-20T10:08:52;11.52;;;3.25;;
25153;SDS011;47555;51.038;6.280;2023-12-20T10:11:19;9.52;;;2.80;;
25153;SDS011;47555;51.038;6.280;2023-12-20T10:13:45;14.38;;;3.53;;
25153;SDS011;47555;51.038;6.280;2023-12-20T10:16:13;12.63;;;3.22;;
25153;SDS011;47555;51.038;6.280;2023-12-20T10:18:39;8.65;;;2.55;;
25153;SDS011;47555;51.038;6.280;2023-12-20T10:21:05;11.57;;;3.95;;
25153;SDS011;47555;51.038;6.280;2023-12-20T10:23:32;12.68;;;3.40;;
25153;SDS011;47555;51.038;6.280;2023-12-20T10:25:58;7.07;;;2.50;;
25153;SDS011;47555;51.038;6.280;2023-12-20T10:28:25;8.43;;;3.20;;
25153;SDS011;47555;51.038;6.280;2023-12-20T10:30:54;9.65;;;2.78;;
25153;SDS011;47555;51.038;6.280;2023-12-20T10:33:30;10.38;;;3.00;;
25153;SDS011;47555;51.038;6.280;2023-12-20T10:35:59;6.80;;;2.80;;
25153;SDS011;47555;51.038;6.280;2023-12-20T10:38:25;14.55;;;3.13;;
25153;SDS011;47555;51.038;6.280;2023-12-20T10:40:53;7.13;;;2.58;;
25153;SDS011;47555;51.038;6.280;2023-12-20T10:43:20;12.25;;;3.25;;
25153;SDS011;47555;51.038;6.280;2023-12-20T10:45:46;10.10;;;3.22;;
25153;SDS011;47555;51.038;6.280;2023-12-20T10:48:12;16.13;;;3.08;;
25153;SDS011;47555;51.038;6.280;2023-12-20T10:50:38;11.57;;;2.67;;
25153;SDS011;47555;51.038;6.280;2023-12-20T10:53:05;7.60;;;2.90;;
25153;SDS011;47555;51.038;6.280;2023-12-20T10:55:32;8.93;;;3.00;;
25153;SDS011;47555;51.038;6.280;2023-12-20T10:58:02;10.45;;;2.83;;
25153;SDS011;47555;51.038;6.280;2023-12-20T11:00:31;7.05;;;3.05;;
25153;SDS011;47555;51.038;6.280;2023-12-20T11:03:00;11.45;;;3.30;;
25153;SDS011;47555;51.038;6.280;2023-12-20T11:05:36;8.50;;;2.83;;
25153;SDS011;47555;51.038;6.280;2023-12-20T11:08:07;11.20;;;3.30;;
25153;SDS011;47555;51.038;6.280;2023-12-20T11:13:23;11.93;;;3.42;;
25153;SDS011;47555;51.038;6.280;2023-12-20T11:15:52;9.18;;;3.55;;
25153;SDS011;47555;51.038;6.280;2023-12-20T11:18:18;6.30;;;2.83;;
25153;SDS011;47555;51.038;6.280;2023-12-20T11:20:44;6.40;;;3.00;;
25153;SDS011;47555;51.038;6.280;2023-12-20T11:23:10;10.52;;;2.63;;
25153;SDS011;47555;51.038;6.280;2023-12-20T11:25:46;6.95;;;2.95;;
25153;SDS011;47555;51.038;6.280;2023-12-20T11:28:13;10.73;;;4.28;;
25153;SDS011;47555;51.038;6.280;2023-12-20T11:30:45;8.85;;;2.92;;
25153;SDS011;47555;51.038;6.280;2023-12-20T11:35:37;9.05;;;3.20;;
25153;SDS011;47555;51.038;6.280;2023-12-20T11:38:07;7.32;;;3.15;;
25153;SDS011;47555;51.038;6.280;2023-12-20T11:40:33;11.45;;;3.15;;
25153;SDS011;47555;51.038;6.280;2023-12-20T11:42:59;8.60;;;3.28;;
25153;SDS011;47555;51.038;6.280;2023-12-20T11:45:25;13.82;;;3.65;;
25153;SDS011;47555;51.038;6.280;2023-12-20T11:47:52;10.52;;;3.22;;
25153;SDS011;47555;51.038;6.280;2023-12-20T11:50:21;8.30;;;3.22;;
25153;SDS011;47555;51.038;6.280;2023-12-20T11:52:48;9.43;;;3.63;;
25153;SDS011;47555;51.038;6.280;2023-12-20T11:55:14;9.80;;;3.17;;
25153;SDS011;47555;51.038;6.280;2023-12-20T11:57:40;12.57;;;4.30;;
25153;SDS011;47555;51.038;6.280;2023-12-20T12:00:06;9.70;;;4.45;;
25153;SDS011;47555;51.038;6.280;2023-12-20T12:02:32;9.38;;;3.58;;
25153;SDS011;47555;51.038;6.280;2023-12-20T12:04:59;10.57;;;3.65;;
25153;SDS011;47555;51.038;6.280;2023-12-20T12:07:25;6.53;;;2.85;;
25153;SDS011;47555;51.038;6.280;2023-12-20T12:09:51;13.05;;;3.88;;
25153;SDS011;47555;51.038;6.280;2023-12-20T12:12:17;6.30;;;3.58;;
25153;SDS011;47555;51.038;6.280;2023-12-20T12:14:44;13.63;;;3.83;;
25153;SDS011;47555;51.038;6.280;2023-12-20T12:17:13;8.95;;;3.72;;
25153;SDS011;47555;51.038;6.280;2023-12-20T12:19:40;14.13;;;3.58;;
25153;SDS011;47555;51.038;6.280;2023-12-20T12:24:38;13.43;;;3.85;;
25153;SDS011;47555;51.038;6.280;2023-12-20T12:27:05;11.05;;;4.10;;
25153;SDS011;47555;51.038;6.280;2023-12-20T12:29:32;7.53;;;3.60;;
25153;SDS011;47555;51.038;6.280;2023-12-20T12:31:58;13.32;;;4.50;;
25153;SDS011;47555;51.038;6.280;2023-12-20T12:34:24;11.75;;;3.90;;
25153;SDS011;47555;51.038;6.280;2023-12-20T12:36:51;10.25;;;4.28;;
25153;SDS011;47555;51.038;6.280;2023-12-20T12:39:17;7.95;;;4.07;;
25153;SDS011;47555;51.038;6.280;2023-12-20T12:41:44;12.50;;;4.50;;
25153;SDS011;47555;51.038;6.280;2023-12-20T12:44:10;11.93;;;4.45;;
25153;SDS011;47555;51.038;6.280;2023-12-20T12:46:36;12.68;;;4.53;;
25153;SDS011;47555;51.038;6.280;2023-12-20T12:49:01;11.30;;;4.15;;
25153;SDS011;47555;51.038;6.280;2023-12-20T12:51:27;10.73;;;4.22;;
25153;SDS011;47555;51.038;6.280;2023-12-20T12:53:53;10.25;;;4.90;;
25153;SDS011;47555;51.038;6.280;2023-12-20T12:56:19;12.68;;;4.82;;
25153;SDS011;47555;51.038;6.280;2023-12-20T12:58:47;6.65;;;4.25;;
25153;SDS011;47555;51.038;6.280;2023-12-20T13:01:13;13.85;;;5.03;;
25153;SDS011;47555;51.038;6.280;2023-12-20T13:03:39;12.27;;;4.40;;
25153;SDS011;47555;51.038;6.280;2023-12-20T13:06:05;12.75;;;4.32;;
25153;SDS011;47555;51.038;6.280;2023-12-20T13:08:33;10.38;;;4.00;;
25153;SDS011;47555;51.038;6.280;2023-12-20T13:10:59;11.25;;;4.13;;
25153;SDS011;47555;51.038;6.280;2023-12-20T13:13:26;9.05;;;4.25;;
25153;SDS011;47555;51.038;6.280;2023-12-20T13:15:52;12.93;;;4.30;;
25153;SDS011;47555;51.038;6.280;2023-12-20T13:18:20;10.00;;;4.28;;
25153;SDS011;47555;51.038;6.280;2023-12-20T13:20:46;14.93;;;4.25;;
25153;SDS011;47555;51.038;6.280;2023-12-20T13:23:12;14.57;;;4.53;;
25153;SDS011;47555;51.038;6.280;2023-12-20T13:25:39;9.38;;;3.78;;
25153;SDS011;47555;51.038;6.280;2023-12-20T13:28:05;10.55;;;3.47;;
25153;SDS011;47555;51.038;6.280;2023-12-20T13:30:31;10.57;;;3.78;;
25153;SDS011;47555;51.038;6.280;2023-12-20T13:32:56;9.90;;;4.35;;
25153;SDS011;47555;51.038;6.280;2023-12-20T13:35:22;7.30;;;3.80;;
25153;SDS011;47555;51.038;6.280;2023-12-20T13:37:48;10.43;;;4.25;;
25153;SDS011;47555;51.038;6.280;2023-12-20T13:40:14;11.20;;;4.43;;
25153;SDS011;47555;51.038;6.280;2023-12-20T13:42:41;11.20;;;3.95;;
25153;SDS011;47555;51.038;6.280;2023-12-20T13:45:08;13.00;;;5.45;;
25153;SDS011;47555;51.038;6.280;2023-12-20T13:47:34;6.53;;;3.30;;
25153;SDS011;47555;51.038;6.280;2023-12-20T13:50:02;7.57;;;3.65;;
25153;SDS011;47555;51.038;6.280;2023-12-20T13:52:29;7.90;;;3.92;;
25153;SDS011;47555;51.038;6.280;2023-12-20T13:54:55;13.88;;;4.32;;
25153;SDS011;47555;51.038;6.280;2023-12-20T13:57:20;11.48;;;3.92;;
25153;SDS011;47555;51.038;6.280;2023-12-20T13:59:47;12.80;;;4.38;;
25153;SDS011;47555;51.038;6.280;2023-12-20T14:02:13;11.32;;;4.00;;
25153;SDS011;47555;51.038;6.280;2023-12-20T14:04:40;11.48;;;4.25;;
25153;SDS011;47555;51.038;6.280;2023-12-20T14:07:06;10.25;;;4.22;;
25153;SDS011;47555;51.038;6.280;2023-12-20T14:09:32;8.98;;;4.13;;
25153;SDS011;47555;51.038;6.280;2023-12-20T14:11:58;9.32;;;3.85;;
25153;SDS011;47555;51.038;6.280;2023-12-20T14:14:24;11.63;;;4.47;;
25153;SDS011;47555;51.038;6.280;2023-12-20T14:16:50;9.77;;;3.95;;
25153;SDS011;47555;51.038;6.280;2023-12-20T14:19:16;9.65;;;4.03;;
25153;SDS011;47555;51.038;6.280;2023-12-20T14:21:43;9.88;;;4.13;;
25153;SDS011;47555;51.038;6.280;2023-12-20T14:24:10;9.88;;;4.28;;
25153;SDS011;47555;51.038;6.280;2023-12-20T14:26:36;9.82;;;4.60;;
25153;SDS011;47555;51.038;6.280;2023-12-20T14:29:02;16.15;;;4.43;;
25153;SDS011;47555;51.038;6.280;2023-12-20T14:31:29;10.82;;;3.78;;
25153;SDS011;47555;51.038;6.280;2023-12-20T14:33:54;9.77;;;3.50;;
25153;SDS011;47555;51.038;6.280;2023-12-20T14:36:21;12.35;;;3.75;;
25153;SDS011;47555;51.038;6.280;2023-12-20T14:38:47;12.57;;;3.75;;
25153;SDS011;47555;51.038;6.280;2023-12-20T14:41:15;11.27;;;4.03;;